createdAt,value
2018-03-19T00:03:37.027Z,3.00
2018-03-19T00:08:37.999Z,2.47
2018-03-19T00:13:38.956Z,2.90
2018-03-19T00:18:39.912Z,3.20
2018-03-19T00:23:40.845Z,3.10
2018-03-19T00:28:41.824Z,3.10
2018-03-19T00:33:42.762Z,3.60
2018-03-19T00:38:43.748Z,3.17
2018-03-19T00:43:44.665Z,2.70
2018-03-19T00:48:45.606Z,2.73
2018-03-19T00:53:46.526Z,3.00
2018-03-19T00:58:47.477Z,2.30
2018-03-19T01:03:48.407Z,3.07
2018-03-19T01:08:49.330Z,3.37
2018-03-19T01:13:50.266Z,2.80
2018-03-19T01:18:51.206Z,3.17
2018-03-19T01:23:52.141Z,3.10
2018-03-19T01:28:53.123Z,2.90
2018-03-19T01:33:54.045Z,3.00
2018-03-19T01:38:54.965Z,2.80
2018-03-19T01:43:55.895Z,2.67
2018-03-19T01:48:56.834Z,2.80
2018-03-19T01:53:57.760Z,2.80
2018-03-19T01:58:58.713Z,2.57
2018-03-19T02:04:00.312Z,3.00
2018-03-19T02:09:01.256Z,2.77
2018-03-19T02:14:02.198Z,3.70
2018-03-19T02:19:03.135Z,3.27
2018-03-19T02:24:04.125Z,2.73
2018-03-19T02:29:05.052Z,2.43
2018-03-19T02:34:05.979Z,2.90
2018-03-19T02:39:06.942Z,2.70
2018-03-19T02:44:07.871Z,2.87
2018-03-19T02:49:08.801Z,3.00
2018-03-19T02:54:09.780Z,3.27
2018-03-19T02:59:10.713Z,2.70
2018-03-19T03:04:12.550Z,3.53
2018-03-19T03:09:13.497Z,3.57
2018-03-19T03:14:14.442Z,3.60
2018-03-19T03:19:15.373Z,2.70
2018-03-19T03:24:17.281Z,3.50
2018-03-19T03:29:18.256Z,3.30
2018-03-19T03:34:19.189Z,3.70
2018-03-19T03:39:20.116Z,2.90
2018-03-19T03:44:21.055Z,2.80
2018-03-19T03:49:21.980Z,3.30
2018-03-19T03:54:22.914Z,3.57
2018-03-19T03:59:23.839Z,3.03
2018-03-19T04:04:24.767Z,3.67
2018-03-19T04:09:25.690Z,4.83
2018-03-19T04:14:26.635Z,3.90
2018-03-19T04:19:27.548Z,4.13
2018-03-19T04:24:28.480Z,3.80
2018-03-19T04:29:29.449Z,3.53
2018-03-19T04:34:30.378Z,4.20
2018-03-19T04:39:31.300Z,4.20
2018-03-19T04:44:32.246Z,4.00
2018-03-19T04:49:33.152Z,3.97
2018-03-19T04:54:34.086Z,4.10
2018-03-19T04:59:35.022Z,5.10
2018-03-19T05:04:35.945Z,4.13
2018-03-19T05:09:36.906Z,3.90
2018-03-19T05:14:37.903Z,4.37
2018-03-19T05:19:38.804Z,5.43
2018-03-19T05:24:39.754Z,5.47
2018-03-19T05:29:40.720Z,5.40
2018-03-19T05:34:41.655Z,5.30
2018-03-19T05:39:42.605Z,4.63
2018-03-19T05:44:43.567Z,5.17
2018-03-19T05:49:44.524Z,5.67
2018-03-19T05:54:45.460Z,5.37
2018-03-19T05:59:46.386Z,5.37
2018-03-19T06:04:47.332Z,6.00
2018-03-19T06:09:48.295Z,6.20
2018-03-19T06:14:49.250Z,6.70
2018-03-19T06:19:50.188Z,6.13
2018-03-19T06:24:51.139Z,5.70
2018-03-19T06:29:52.136Z,5.80
2018-03-19T06:34:53.082Z,5.77
2018-03-19T06:39:54.023Z,6.00
2018-03-19T06:44:55.028Z,6.23
2018-03-19T06:49:55.960Z,6.40
2018-03-19T06:54:56.879Z,6.93
2018-03-19T06:59:57.836Z,6.43
2018-03-19T07:04:58.781Z,5.80
2018-03-19T07:09:59.736Z,6.40
2018-03-19T07:15:00.666Z,5.33
2018-03-19T07:20:01.594Z,5.53
2018-03-19T07:25:02.569Z,6.20
2018-03-19T07:30:03.625Z,4.53
2018-03-19T07:35:04.562Z,5.00
2018-03-19T07:40:05.513Z,5.60
2018-03-19T07:45:06.477Z,5.50
2018-03-19T07:50:07.452Z,5.53
2018-03-19T07:55:08.380Z,5.70
2018-03-19T08:00:09.334Z,6.30
2018-03-19T08:05:10.266Z,4.90
2018-03-19T08:10:11.192Z,5.63
2018-03-19T08:15:12.124Z,5.87
2018-03-19T08:20:13.848Z,7.40
2018-03-19T08:25:14.804Z,5.80
2018-03-19T08:30:15.798Z,5.10
2018-03-19T08:35:16.761Z,4.10
2018-03-19T08:40:17.726Z,4.40
2018-03-19T08:45:18.655Z,5.80
2018-03-19T08:50:19.622Z,4.73
2018-03-19T08:55:20.573Z,4.17
2018-03-19T09:00:21.527Z,3.60
2018-03-19T09:05:22.465Z,4.57
2018-03-19T09:10:23.400Z,4.77
2018-03-19T09:15:24.342Z,5.00
2018-03-19T09:20:25.276Z,4.93
2018-03-19T09:25:26.250Z,5.33
2018-03-19T09:30:27.249Z,5.60
2018-03-19T09:35:28.217Z,5.43
2018-03-19T09:40:30.065Z,5.20
2018-03-19T09:45:31.005Z,5.20
2018-03-19T09:50:31.973Z,4.43
2018-03-19T09:55:32.947Z,4.73
2018-03-19T10:00:33.888Z,5.87
2018-03-19T10:05:34.840Z,4.87
2018-03-19T10:10:35.782Z,6.23
2018-03-19T10:15:36.741Z,4.60
2018-03-19T10:20:37.693Z,5.80
2018-03-19T10:25:38.664Z,4.80
2018-03-19T10:30:39.654Z,4.83
2018-03-19T10:35:40.615Z,5.03
2018-03-19T10:40:41.555Z,5.10
2018-03-19T10:45:42.554Z,5.60
2018-03-19T10:50:43.530Z,5.30
2018-03-19T10:55:44.488Z,4.87
2018-03-19T11:00:45.741Z,4.80
2018-03-19T11:05:49.645Z,5.80
2018-03-19T11:10:50.597Z,4.60
2018-03-19T11:15:51.553Z,3.97
2018-03-19T11:20:52.861Z,4.53
2018-03-19T11:25:53.858Z,4.53
2018-03-19T11:30:54.828Z,5.10
2018-03-19T11:35:55.790Z,4.63
2018-03-19T11:40:56.746Z,5.17
2018-03-19T11:45:57.688Z,5.17
2018-03-19T11:50:58.625Z,4.80
2018-03-19T11:55:59.609Z,4.63
2018-03-19T12:01:00.550Z,5.83
2018-03-19T12:28:27.525Z,4.50
2018-03-19T12:33:28.531Z,4.40
2018-03-19T12:38:30.374Z,5.10
2018-03-19T12:43:31.340Z,5.27
2018-03-19T12:48:32.296Z,4.57
2018-03-19T12:53:33.986Z,4.87
2018-03-19T12:58:34.950Z,4.67
2018-03-19T13:03:35.897Z,5.67
2018-03-19T13:08:36.875Z,4.73
2018-03-19T13:13:37.818Z,5.30
2018-03-19T13:18:38.781Z,5.27
2018-03-19T13:23:39.766Z,5.07
2018-03-19T13:28:40.706Z,5.10
2018-03-19T13:33:41.701Z,5.13
2018-03-19T13:38:42.634Z,5.63
2018-03-19T13:43:43.549Z,4.70
2018-03-19T13:48:44.475Z,4.57
2018-03-19T13:53:45.401Z,4.90
2018-03-19T13:58:46.363Z,5.00
2018-03-19T14:03:48.094Z,5.30
2018-03-19T14:08:49.653Z,4.87
2018-03-19T14:13:50.592Z,4.90
2018-03-19T14:18:51.554Z,5.73
2018-03-19T14:23:52.493Z,4.83
2018-03-19T14:28:53.437Z,5.20
2018-03-19T14:33:54.453Z,4.40
2018-03-19T14:38:55.382Z,5.00
2018-03-19T14:43:56.329Z,4.27
2018-03-19T14:48:57.305Z,4.30
2018-03-19T14:53:58.246Z,3.77
2018-03-19T14:58:59.218Z,4.70
2018-03-19T15:04:01.154Z,4.83
2018-03-19T15:09:02.112Z,5.20
2018-03-19T15:14:03.047Z,4.50
2018-03-19T15:19:04.025Z,5.20
2018-03-19T15:24:04.997Z,4.77
2018-03-19T15:29:05.937Z,5.13
2018-03-19T15:34:06.927Z,4.90
2018-03-19T15:39:07.869Z,5.27
2018-03-19T15:44:08.824Z,4.40
2018-03-19T15:49:09.776Z,4.80
2018-03-19T15:54:10.725Z,6.57
2018-03-19T15:59:11.671Z,6.97
2018-03-19T16:04:12.649Z,9.30
2018-03-19T16:09:13.618Z,7.60
2018-03-19T16:14:14.589Z,5.20
2018-03-19T16:19:15.591Z,5.30
2018-03-19T16:24:16.540Z,4.53
2018-03-19T16:29:17.521Z,4.93
2018-03-19T16:34:18.550Z,3.83
2018-03-19T16:39:19.504Z,5.37
2018-03-19T16:44:20.482Z,4.47
2018-03-19T16:49:21.474Z,4.93
2018-03-19T16:54:22.431Z,5.20
2018-03-19T16:59:23.470Z,4.33
2018-03-19T17:04:24.348Z,4.10
2018-03-19T17:09:25.310Z,4.80
2018-03-19T17:14:26.264Z,4.60
2018-03-19T17:19:27.200Z,5.20
2018-03-19T17:24:35.102Z,4.60
2018-03-19T17:29:36.868Z,5.93
2018-03-19T17:34:38.751Z,4.87
2018-03-19T17:39:39.725Z,5.13
2018-03-19T17:44:40.699Z,4.63
2018-03-19T17:49:41.651Z,4.50
2018-03-19T17:54:42.604Z,4.77
2018-03-19T17:59:43.573Z,4.60
2018-03-19T18:04:44.552Z,5.20
2018-03-19T18:09:45.674Z,4.63
2018-03-19T18:14:47.635Z,4.10
2018-03-19T18:19:48.650Z,5.13
2018-03-19T18:24:49.654Z,5.40
2018-03-19T18:29:50.638Z,5.63
2018-03-19T18:34:51.701Z,5.47
2018-03-19T18:39:52.695Z,5.60
2018-03-19T18:45:00.528Z,4.90
2018-03-19T18:50:01.540Z,5.00
2018-03-19T18:55:02.563Z,4.80
2018-03-19T19:00:03.591Z,8.90
2018-03-19T19:05:04.583Z,5.30
2018-03-19T19:10:05.549Z,5.40
2018-03-19T19:15:06.612Z,6.37
2018-03-19T19:20:07.583Z,4.80
2018-03-19T19:25:08.535Z,4.50
2018-03-19T19:30:09.526Z,4.60
2018-03-19T19:35:10.541Z,4.90
2018-03-19T19:40:11.529Z,4.43
2018-03-19T19:45:12.476Z,5.17
2018-03-19T19:50:13.447Z,5.13
2018-03-19T19:55:14.452Z,5.30
2018-03-19T20:00:15.465Z,5.80
2018-03-19T20:05:16.449Z,6.10
2018-03-19T20:10:17.492Z,5.30
2018-03-19T20:15:18.525Z,5.80
2018-03-19T20:20:19.509Z,7.37
2018-03-19T20:25:20.529Z,4.90
2018-03-19T20:30:21.562Z,6.23
2018-03-19T20:35:22.613Z,5.93
2018-03-19T20:40:23.610Z,6.13
2018-03-19T20:45:24.590Z,5.23
2018-03-19T20:50:25.561Z,6.10
2018-03-19T20:55:26.537Z,6.50
2018-03-19T21:00:27.521Z,6.43
2018-03-19T21:05:28.517Z,6.90
2018-03-19T21:10:29.501Z,7.60
2018-03-19T21:15:30.457Z,6.10
2018-03-19T21:20:31.437Z,6.23
2018-03-19T21:25:32.405Z,6.13
2018-03-19T21:30:33.570Z,6.00
2018-03-19T21:35:34.573Z,6.77
2018-03-19T21:40:35.537Z,7.20
2018-03-19T21:45:36.488Z,6.47
2018-03-19T21:50:37.441Z,6.73
2018-03-19T21:55:38.410Z,6.07
2018-03-19T22:00:39.381Z,5.50
2018-03-19T22:05:40.347Z,7.63
2018-03-19T22:10:41.296Z,8.67
2018-03-19T22:15:42.261Z,6.43
2018-03-19T22:20:43.230Z,5.87
2018-03-19T22:25:44.204Z,8.20
2018-03-19T22:30:45.214Z,6.60
2018-03-19T22:35:46.193Z,6.60
2018-03-19T22:40:47.114Z,5.50
2018-03-19T22:45:48.071Z,6.30
2018-03-19T22:50:49.004Z,6.80
2018-03-19T22:55:50.653Z,5.17
2018-03-19T23:00:51.613Z,5.50
2018-03-19T23:05:52.553Z,5.83
2018-03-19T23:10:53.476Z,7.03
2018-03-19T23:15:54.432Z,6.03
2018-03-19T23:20:55.347Z,5.00
2018-03-19T23:25:56.279Z,5.37
2018-03-19T23:30:57.263Z,6.33
2018-03-19T23:35:58.243Z,6.00
2018-03-19T23:40:59.161Z,5.90
2018-03-19T23:46:00.089Z,6.03
2018-03-19T23:51:01.031Z,6.33
2018-03-19T23:56:01.959Z,6.57
